Terminal Aerodrome Forecast
Issued by NWS

Home | Current Version | Previous Version | Text Only | Print | Product List | Glossary On
Versions: 1 2 3 4 5 6 7 8 9 10 11 12 13 14 15 16 17 18 19 20 21
571
FTUS46 KMTR 282334
TAFSNS
TAF
KSNS 282334Z 2900/2924 26015KT P6SM SKC
     FM290300 27011KT P6SM OVC007
     FM291400 27004KT 4SM BR OVC004
     FM291800 29004KT P6SM SKC
     FM292000 27015KT P6SM SKC=

USA.gov is the U.S. government's official web portal to all federal, state and local government web resources and services.